Time;durP1;ratioP1;P1;durP2;ratioP2;P2;SDS_P1;SDS_P2;PMS_P1;PMS_P2;Temp;Humidity;BMP_temperature;BMP_pressure;BME280_temperature;BME280_humidity;BME280_pressure;Samples;Min_cycle;Max_cycle;Signal;HPM_P1;HPM_P2
2022/09/22 00:01:02;;;;;;;2.20;2.00;;;;;;;6.06;95.82;98418.22;6168909;28;20235;-90
2022/09/22 00:04:11;;;;;;;3.07;1.90;;;;;;;6.09;95.69;98418.06;6174551;28;20328;-90
2022/09/22 00:07:13;;;;;;;2.80;2.47;;;;;;;6.07;96.08;98414.69;6168750;28;20775;-90
2022/09/22 00:10:15;;;;;;;2.30;2.10;;;;;;;6.08;96.21;98415.53;6169870;28;20306;-90
2022/09/22 00:13:17;;;;;;;2.77;1.73;;;;;;;6.08;96.27;98408.53;6186472;28;20246;-90
2022/09/22 00:16:22;;;;;;;3.07;2.10;;;;;;;6.10;96.01;98411.03;6192279;28;20234;-90
2022/09/22 00:19:35;;;;;;;2.27;1.93;;;;;;;6.11;96.19;98404.88;6176241;28;20724;-90
2022/09/22 00:22:38;;;;;;;2.30;2.10;;;;;;;6.08;96.13;98407.69;6143894;28;20706;-90
2022/09/22 00:25:41;;;;;;;2.60;1.90;;;;;;;6.08;96.50;98410.31;6159802;28;20274;-89
2022/09/22 00:28:44;;;;;;;2.27;1.70;;;;;;;6.09;95.80;98402.34;6145545;28;20235;-90
2022/09/22 00:31:47;;;;;;;3.23;2.00;;;;;;;6.09;96.01;98412.00;6145427;28;20237;-90
2022/09/22 00:34:49;;;;;;;1.90;1.70;;;;;;;6.07;96.53;98403.38;6176192;28;20242;-90
2022/09/22 00:37:51;;;;;;;1.70;1.60;;;;;;;6.00;96.08;98405.44;6144072;28;20314;-89
2022/09/22 00:40:54;;;;;;;2.13;1.67;;;;;;;5.95;96.02;98406.59;6159858;28;20234;-90
2022/09/22 00:44:14;;;;;;;2.03;1.80;;;;;;;5.88;96.10;98411.31;6159948;28;20265;-90
2022/09/22 00:47:35;;;;;;;1.70;1.60;;;;;;;5.79;96.27;98404.69;6158591;28;20367;-90
2022/09/22 00:50:38;;;;;;;2.13;1.93;;;;;;;5.74;96.08;98401.47;6158552;28;20255;-90
2022/09/22 00:53:40;;;;;;;3.27;1.87;;;;;;;5.69;95.82;98407.88;6175255;28;20798;-90
2022/09/22 00:56:46;;;;;;;2.03;1.80;;;;;;;5.65;95.80;98406.31;6144530;28;20232;-89
2022/09/22 00:59:51;;;;;;;2.90;1.80;;;;;;;5.62;95.57;98402.06;6143692;28;20230;-90
2022/09/22 01:02:56;;;;;;;1.73;1.60;;;;;;;5.58;95.52;98403.16;6143309;28;22353;-90
2022/09/22 01:06:05;;;;;;;1.87;1.67;;;;;;;5.55;95.44;98391.03;6161155;28;20707;-90
2022/09/22 01:09:08;;;;;;;2.20;2.00;;;;;;;5.52;95.30;98393.81;6142912;28;20472;-90
2022/09/22 01:12:11;;;;;;;2.17;1.80;;;;;;;5.51;95.28;98381.63;6159031;28;20215;-90
2022/09/22 01:15:46;;;;;;;2.50;1.90;;;;;;;5.49;94.51;98388.72;6159347;28;20410;-90
2022/09/22 01:18:57;;;;;;;2.70;1.93;;;;;;;5.44;94.66;98382.88;6149505;28;20314;-90
2022/09/22 01:22:37;;;;;;;2.27;1.77;;;;;;;5.38;94.98;98374.47;6159982;28;20332;-90
2022/09/22 01:26:01;;;;;;;2.17;1.67;;;;;;;5.32;94.48;98375.59;6159789;28;20263;-90
2022/09/22 01:29:03;;;;;;;4.20;1.87;;;;;;;5.32;94.38;98374.75;6159161;28;20335;-90
2022/09/22 01:32:31;;;;;;;2.20;2.00;;;;;;;5.29;94.45;98375.72;6158493;28;20378;-90
2022/09/22 01:36:10;;;;;;;1.70;1.60;;;;;;;5.26;94.80;98377.66;6159960;28;20631;-90
2022/09/22 01:39:24;;;;;;;2.30;1.63;;;;;;;5.18;94.87;98370.19;6174585;28;20243;-90
2022/09/22 01:42:35;;;;;;;1.87;1.73;;;;;;;5.14;94.17;98369.47;6159474;28;20695;-90
2022/09/22 01:45:41;;;;;;;3.23;1.57;;;;;;;5.11;94.84;98374.00;6159275;28;20316;-90
2022/09/22 01:48:49;;;;;;;2.27;1.87;;;;;;;5.08;94.73;98369.78;6158694;28;20265;-90
2022/09/22 01:51:58;;;;;;;2.47;1.90;;;;;;;5.04;94.05;98362.97;6141648;28;20243;-90
2022/09/22 01:55:10;;;;;;;2.07;1.80;;;;;;;5.04;94.81;98373.44;6142777;28;20723;-90
2022/09/22 01:58:15;;;;;;;3.60;1.90;;;;;;;5.02;94.54;98359.59;6142685;28;20227;-90
2022/09/22 02:01:20;;;;;;;1.77;1.67;;;;;;;5.01;94.20;98365.72;6142567;28;20649;-90
2022/09/22 02:04:36;;;;;;;2.27;1.90;;;;;;;4.98;94.19;98359.81;6142180;28;20238;-90
2022/09/22 02:07:42;;;;;;;2.47;1.80;;;;;;;4.93;94.07;98361.78;6158638;28;20264;-90
2022/09/22 02:10:47;;;;;;;2.00;1.73;;;;;;;4.89;94.11;98353.22;6142415;28;20373;-90
2022/09/22 02:13:50;;;;;;;3.50;1.93;;;;;;;4.88;94.07;98350.72;6157754;28;20231;-89
2022/09/22 02:16:53;;;;;;;2.00;1.80;;;;;;;4.86;93.82;98353.38;6163406;28;20321;-89
2022/09/22 02:19:55;;;;;;;2.57;2.10;;;;;;;4.88;94.57;98353.31;6192379;28;20245;-92
2022/09/22 02:22:57;;;;;;;2.03;1.83;;;;;;;4.90;93.79;98356.69;6209702;28;20233;-93
2022/09/22 02:26:02;;;;;;;3.20;1.87;;;;;;;4.91;94.31;98350.53;6193494;28;20587;-91
2022/09/22 02:29:09;;;;;;;4.27;2.37;;;;;;;4.92;94.34;98353.09;6202528;28;20212;-89
2022/09/22 02:32:15;;;;;;;2.50;2.30;;;;;;;4.95;94.89;98352.09;6221146;28;20229;-90
2022/09/22 02:35:17;;;;;;;2.07;1.80;;;;;;;4.96;93.97;98344.19;6207952;28;20272;-90
2022/09/22 02:38:26;;;;;;;4.17;2.10;;;;;;;4.98;94.14;98350.22;6179261;28;20225;-90
2022/09/22 02:41:55;;;;;;;2.77;1.93;;;;;;;4.98;94.98;98342.34;6187467;28;20837;-90
2022/09/22 02:45:21;;;;;;;3.30;2.43;;;;;;;5.00;94.77;98337.03;6165330;28;20238;-90
2022/09/22 02:48:39;;;;;;;2.23;1.90;;;;;;;5.00;95.26;98337.88;6180757;28;20226;-89
2022/09/22 02:51:41;;;;;;;2.10;1.90;;;;;;;5.02;94.93;98335.19;6177819;28;20318;-89
2022/09/22 02:54:43;;;;;;;2.40;2.20;;;;;;;5.03;94.62;98329.03;6181082;28;20232;-90
2022/09/22 02:57:46;;;;;;;2.13;1.93;;;;;;;5.02;94.84;98338.66;6165631;28;20231;-90
2022/09/22 03:00:47;;;;;;;2.43;2.20;;;;;;;5.03;95.33;98340.34;6165270;28;20234;-90
2022/09/22 03:03:49;;;;;;;2.10;1.90;;;;;;;5.03;95.04;98344.75;6165287;28;20642;-90
2022/09/22 03:06:52;;;;;;;2.80;2.33;;;;;;;5.06;94.97;98344.59;6181989;28;20237;-90
2022/09/22 03:09:54;;;;;;;2.13;1.90;;;;;;;5.09;95.30;98347.09;6148813;28;20690;-89
2022/09/22 03:12:56;;;;;;;2.50;2.27;;;;;;;5.07;95.49;98346.31;6189031;28;20224;-89
2022/09/22 03:16:17;;;;;;;2.57;2.30;;;;;;;5.04;95.38;98346.44;6174598;28;20247;-89
2022/09/22 03:19:19;;;;;;;3.30;2.37;;;;;;;5.03;95.30;98350.81;6173576;28;20267;-90
2022/09/22 03:22:21;;;;;;;4.33;2.27;;;;;;;5.03;95.88;98352.59;6173391;28;20258;-89
2022/09/22 03:25:23;;;;;;;2.30;1.90;;;;;;;4.99;95.82;98351.06;6173411;28;20228;-89
2022/09/22 03:28:25;;;;;;;2.83;2.07;;;;;;;4.99;95.41;98346.63;6172056;28;20248;-89
2022/09/22 03:31:27;;;;;;;2.43;2.23;;;;;;;4.95;95.53;98345.09;6189748;28;20239;-89
2022/09/22 03:34:29;;;;;;;2.73;2.23;;;;;;;5.02;96.43;98341.28;6172509;28;20767;-89
2022/09/22 03:37:32;;;;;;;3.87;2.37;;;;;;;5.06;96.07;98340.22;6188726;28;20698;-89
2022/09/22 03:40:34;;;;;;;3.97;2.73;;;;;;;5.13;96.89;98335.53;6189187;28;20370;-90
2022/09/22 03:43:36;;;;;;;2.90;2.57;;;;;;;5.17;96.64;98327.47;6164637;28;20244;-90
2022/09/22 03:46:38;;;;;;;2.87;2.63;;;;;;;5.23;97.32;98328.09;6172502;28;20230;-89
2022/09/22 03:49:40;;;;;;;4.97;2.60;;;;;;;5.28;97.24;98329.56;6189924;28;20317;-89
2022/09/22 03:52:43;;;;;;;3.00;2.80;;;;;;;5.35;97.09;98322.25;6188390;28;20698;-89
2022/09/22 03:55:45;;;;;;;4.53;2.80;;;;;;;5.38;97.66;98320.34;6176820;28;20230;-90
2022/09/22 03:58:48;;;;;;;3.70;2.87;;;;;;;5.44;97.97;98324.44;6175618;28;20230;-89
2022/09/22 04:01:57;;;;;;;5.03;3.10;;;;;;;5.47;97.50;98321.66;6176793;28;20233;-89
2022/09/22 04:04:59;;;;;;;3.13;2.70;;;;;;;5.45;97.98;98311.28;6167495;28;20233;-89
2022/09/22 04:08:01;;;;;;;3.87;2.40;;;;;;;5.46;97.76;98305.13;6168082;28;20255;-90
2022/09/22 04:11:04;;;;;;;3.70;2.80;;;;;;;5.46;98.16;98299.88;6168471;28;20238;-90
2022/09/22 04:14:06;;;;;;;2.90;2.67;;;;;;;5.47;98.19;98300.72;6209762;28;20230;-90
2022/09/22 04:17:09;;;;;;;2.70;2.50;;;;;;;5.48;98.46;98300.66;6176398;28;20245;-89
2022/09/22 04:20:11;;;;;;;5.50;2.60;;;;;;;5.50;98.52;98301.41;6182476;28;20709;-89
2022/09/22 04:23:14;;;;;;;3.30;2.40;;;;;;;5.50;98.78;98297.94;6152533;28;20241;-89
2022/09/22 04:26:16;;;;;;;2.90;2.70;;;;;;;5.49;98.77;98302.31;6168381;28;20229;-89
2022/09/22 04:29:18;;;;;;;3.73;2.93;;;;;;;5.50;98.45;98296.16;6168744;28;20837;-89
2022/09/22 04:32:20;;;;;;;4.47;2.40;;;;;;;5.50;98.60;98295.31;6152708;28;20238;-89
2022/09/22 04:35:22;;;;;;;3.27;2.50;;;;;;;5.52;98.64;98293.47;6153443;28;20234;-89
2022/09/22 04:38:24;;;;;;;3.20;2.40;;;;;;;5.54;99.17;98296.88;6152775;28;20251;-89
2022/09/22 04:41:27;;;;;;;2.90;2.57;;;;;;;5.52;99.01;98301.31;6154832;28;20213;-90
2022/09/22 04:44:29;;;;;;;3.80;3.20;;;;;;;5.53;99.22;98295.16;6191408;28;20379;-90
2022/09/22 04:47:35;;;;;;;3.07;2.73;;;;;;;5.52;98.96;98298.72;6192218;28;20702;-90
2022/09/22 04:50:37;;;;;;;3.87;2.40;;;;;;;5.55;99.30;98293.34;6192877;28;20729;-90
2022/09/22 04:53:39;;;;;;;3.63;3.13;;;;;;;5.56;98.82;98303.72;6191919;28;20236;-89
2022/09/22 04:56:42;;;;;;;4.07;2.60;;;;;;;5.59;99.32;98299.28;6191348;28;20231;-89
2022/09/22 04:59:44;;;;;;;4.40;2.43;;;;;;;5.58;99.88;98308.91;6191620;28;20231;-89
2022/09/22 05:02:46;;;;;;;3.67;2.00;;;;;;;5.57;98.98;98308.03;6174570;28;20734;-89
2022/09/22 05:05:48;;;;;;;3.93;2.37;;;;;;;5.52;99.43;98312.66;6190768;28;20314;-89
2022/09/22 05:08:51;;;;;;;3.97;2.40;;;;;;;5.50;99.35;98313.63;6191700;28;20788;-89
2022/09/22 05:11:59;;;;;;;2.30;2.10;;;;;;;5.47;99.74;98309.44;6183734;28;20222;-89
2022/09/22 05:15:02;;;;;;;3.40;2.07;;;;;;;5.46;99.26;98318.19;6166272;28;20214;-89
2022/09/22 05:18:04;;;;;;;2.63;2.37;;;;;;;5.43;99.35;98314.88;6166709;28;20648;-89
2022/09/22 05:21:06;;;;;;;2.50;2.30;;;;;;;5.42;99.16;98319.25;6173806;28;20734;-89
2022/09/22 05:24:08;;;;;;;2.67;2.37;;;;;;;5.47;99.22;98319.06;6182536;28;20690;-90
2022/09/22 05:27:10;;;;;;;4.97;2.57;;;;;;;5.52;99.44;98319.66;6181830;28;20201;-90
2022/09/22 05:30:13;;;;;;;4.17;2.50;;;;;;;5.57;99.57;98331.59;6183186;28;20218;-90
2022/09/22 05:33:15;;;;;;;5.00;2.63;;;;;;;5.63;99.83;98334.84;6182973;28;20603;-90
2022/09/22 05:36:17;;;;;;;3.77;2.97;;;;;;;5.68;99.27;98331.06;6199593;28;20682;-90
2022/09/22 05:39:19;;;;;;;2.57;2.37;;;;;;;5.70;99.04;98320.50;6181748;28;20215;-90
2022/09/22 05:42:22;;;;;;;3.03;2.27;;;;;;;5.75;99.52;98310.66;6189220;28;20281;-89
2022/09/22 05:45:24;;;;;;;4.30;2.43;;;;;;;5.77;99.52;98329.75;6189716;28;20836;-90
2022/09/22 05:48:26;;;;;;;8.27;2.93;;;;;;;5.80;99.45;98334.81;6175974;28;20674;-90
2022/09/22 05:51:32;;;;;;;3.93;2.90;;;;;;;5.80;99.06;98329.59;6179405;28;20900;-90
2022/09/22 05:54:34;;;;;;;2.90;2.50;;;;;;;5.82;99.17;98332.97;6189862;28;20724;-90
2022/09/22 05:57:36;;;;;;;4.03;2.43;;;;;;;5.83;99.54;98340.75;6173639;28;20764;-89
2022/09/22 06:00:40;;;;;;;3.53;2.23;;;;;;;5.87;99.55;98338.84;6190136;28;20764;-94
2022/09/22 06:03:42;;;;;;;2.70;2.50;;;;;;;5.89;99.86;98339.63;6189771;28;20245;-91
2022/09/22 06:06:44;;;;;;;2.93;2.30;;;;;;;5.96;99.51;98342.78;6176680;28;20324;-90
2022/09/22 06:09:47;;;;;;;2.63;2.30;;;;;;;6.00;99.49;98346.94;6206063;28;20218;-90
2022/09/22 06:12:49;;;;;;;5.07;2.50;;;;;;;6.04;99.69;98348.50;6210339;28;20857;-89
2022/09/22 06:15:51;;;;;;;3.40;2.70;;;;;;;6.12;99.88;98347.16;6189823;28;20240;-90
2022/09/22 06:18:53;;;;;;;4.43;2.70;;;;;;;6.20;99.90;98352.00;6173620;28;20246;-90
2022/09/22 06:21:55;;;;;;;3.77;2.37;;;;;;;6.29;99.54;98354.13;6172226;28;20726;-90
2022/09/22 06:24:57;;;;;;;3.17;2.23;;;;;;;6.35;99.34;98356.47;6188850;28;20703;-90
2022/09/22 06:28:04;;;;;;;2.43;2.20;;;;;;;6.43;99.60;98353.44;6173279;28;20242;-90
2022/09/22 06:31:06;;;;;;;2.70;2.50;;;;;;;6.51;99.45;98356.47;6190857;28;20254;-90
2022/09/22 06:34:10;;;;;;;2.60;2.40;;;;;;;6.64;99.39;98361.00;6173028;28;20723;-89
2022/09/22 06:37:13;;;;;;;5.03;2.43;;;;;;;6.78;99.33;98357.66;6172376;28;20564;-91
2022/09/22 06:40:15;;;;;;;3.10;2.80;;;;;;;6.91;98.92;98358.66;6171784;28;20262;-90
2022/09/22 06:43:22;;;;;;;3.17;2.70;;;;;;;7.03;98.56;98368.47;6171106;28;20239;-90
2022/09/22 06:46:26;;;;;;;2.87;2.57;;;;;;;7.30;98.40;98367.88;6166157;28;20424;-90
2022/09/22 06:49:28;;;;;;;2.90;2.70;;;;;;;7.62;97.39;98366.06;6165684;28;20235;-91
2022/09/22 06:52:31;;;;;;;2.87;2.53;;;;;;;7.83;96.12;98362.19;6181256;28;20270;-90
2022/09/22 06:55:40;;;;;;;4.10;3.00;;;;;;;8.04;94.53;98363.56;6170613;28;20237;-90
2022/09/22 06:58:43;;;;;;;4.07;2.90;;;;;;;8.33;93.65;98367.13;6180798;28;20237;-89
2022/09/22 07:02:06;;;;;;;4.97;2.70;;;;;;;8.56;90.37;98373.63;6180117;28;20631;-90
2022/09/22 07:05:08;;;;;;;3.03;2.73;;;;;;;8.68;89.30;98372.03;6181889;28;20232;-91
2022/09/22 07:08:10;;;;;;;3.53;2.67;;;;;;;8.73;88.36;98360.25;6165056;28;20284;-90
2022/09/22 07:11:16;;;;;;;3.07;2.77;;;;;;;8.81;87.01;98357.16;6183215;28;20224;-91
2022/09/22 07:14:21;;;;;;;3.13;2.83;;;;;;;9.03;86.56;98354.03;6206888;28;20224;-90
2022/09/22 07:17:23;;;;;;;3.57;2.70;;;;;;;9.13;84.37;98350.72;6188678;28;20268;-91
2022/09/22 07:20:25;;;;;;;4.27;2.97;;;;;;;9.27;84.19;98344.56;6181140;28;20229;-91
2022/09/22 07:23:27;;;;;;;2.57;2.33;;;;;;;9.40;83.92;98344.59;6182430;28;20256;-90
2022/09/22 07:26:34;;;;;;;4.43;2.60;;;;;;;9.56;82.92;98338.25;6181597;28;20237;-91
2022/09/22 07:29:36;;;;;;;2.97;2.67;;;;;;;9.70;81.03;98350.50;6169520;28;20303;-89
2022/09/22 07:32:38;;;;;;;2.90;2.60;;;;;;;9.93;80.24;98347.19;6169785;28;20228;-91
2022/09/22 07:35:40;;;;;;;2.77;2.20;;;;;;;10.35;79.40;98347.91;6186384;28;20266;-90
2022/09/22 07:38:47;;;;;;;2.27;2.07;;;;;;;10.62;77.80;98337.22;6170806;28;20239;-90
2022/09/22 07:41:50;;;;;;;3.37;2.10;;;;;;;11.13;75.90;98345.88;6176732;28;20312;-90
2022/09/22 07:51:33;;;;;;;1.90;1.80;;;;;;;12.41;70.95;98350.41;6192831;28;20231;-92
2022/09/22 07:54:36;;;;;;;3.00;1.90;;;;;;;12.79;68.66;98349.22;6193176;28;20730;-90
2022/09/22 07:57:38;;;;;;;2.03;1.77;;;;;;;13.19;67.43;98341.63;6193454;28;20714;-91
2022/09/22 08:00:40;;;;;;;2.03;1.67;;;;;;;13.51;66.04;98346.97;6194338;28;20845;-91
2022/09/22 08:03:42;;;;;;;2.90;1.80;;;;;;;13.72;64.64;98341.72;6193149;28;20235;-91
2022/09/22 08:06:47;;;;;;;2.37;1.70;;;;;;;13.99;62.05;98345.56;6176917;28;20254;-89
2022/09/22 08:09:49;;;;;;;2.40;2.00;;;;;;;13.83;63.18;98349.63;6192943;28;20233;-90
2022/09/22 08:12:56;;;;;;;2.23;2.03;;;;;;;14.01;62.74;98343.63;6179497;28;20236;-90
2022/09/22 08:16:02;;;;;;;2.20;1.57;;;;;;;13.73;63.17;98349.56;6169790;28;20233;-91
2022/09/22 08:19:11;;;;;;;2.53;2.00;;;;;;;13.31;64.48;98353.91;6186065;28;20257;-92
2022/09/22 08:22:17;;;;;;;1.97;1.67;;;;;;;13.27;65.18;98350.66;6184744;28;20238;-91
2022/09/22 08:25:19;;;;;;;2.33;1.90;;;;;;;13.30;63.14;98363.66;6186281;28;20225;-92
2022/09/22 08:28:22;;;;;;;2.00;1.57;;;;;;;13.15;64.16;98358.75;6169116;28;20239;-92
2022/09/22 08:31:26;;;;;;;1.83;1.73;;;;;;;12.80;65.27;98364.13;6184094;28;20251;-91
2022/09/22 08:34:28;;;;;;;2.70;2.00;;;;;;;12.64;65.79;98367.16;6171174;28;20237;-90
2022/09/22 08:37:31;;;;;;;2.10;1.90;;;;;;;12.77;65.87;98367.06;6172979;28;20237;-90
2022/09/22 08:40:34;;;;;;;1.70;1.60;;;;;;;12.82;65.26;98359.56;6185536;28;20243;-90
2022/09/22 08:44:02;;;;;;;2.37;1.90;;;;;;;13.12;64.45;98367.75;6180621;28;20239;-91
2022/09/22 08:47:05;;;;;;;1.50;1.40;;;;;;;13.39;64.64;98363.88;6152322;28;20236;-90
2022/09/22 08:53:56;;;;;;;1.90;1.70;;;;;;;14.07;62.02;98342.31;6184417;28;20320;-89
2022/09/22 08:57:25;;;;;;;1.67;1.50;;;;;;;14.38;60.34;98336.06;6168490;28;20223;-90
2022/09/22 09:00:35;;;;;;;2.87;1.60;;;;;;;14.78;60.64;98335.31;6167971;28;20230;-90
2022/09/22 09:04:10;;;;;;;2.30;1.57;;;;;;;15.23;58.05;98335.75;6185173;28;20236;-91
2022/09/22 09:07:44;;;;;;;2.53;1.67;;;;;;;15.59;56.49;98336.13;6199810;28;20325;-90
2022/09/22 09:10:52;;;;;;;1.40;1.23;;;;;;;15.97;56.41;98340.66;6183880;28;20237;-91
2022/09/22 09:14:18;;;;;;;2.70;1.70;;;;;;;-144.22;100.00;60274.75;6191278;28;20237;-90
2022/09/22 09:17:26;;;;;;;1.50;1.27;;;;;;;16.55;100.00;60274.75;6190694;28;20244;-91
2022/09/22 09:20:34;;;;;;;1.50;1.40;;;;;;;-144.22;100.00;60274.75;6183565;28;20239;-91
2022/09/22 09:23:44;;;;;;;2.23;1.10;;;;;;;-144.22;100.00;60274.75;6183794;28;20237;-90
2022/09/22 09:27:13;;;;;;;0.90;0.90;;;;;;;16.55;100.00;60274.75;6167068;28;20232;-90
2022/09/22 09:30:18;;;;;;;1.50;1.40;;;;;;;-144.22;100.00;60274.75;6166618;28;20356;-89
2022/09/22 09:33:39;;;;;;;1.50;1.40;;;;;;;-144.22;100.00;60274.75;6182991;28;20798;-90
2022/09/22 09:36:45;;;;;;;2.07;1.43;;;;;;;-144.22;100.00;60274.75;6150471;28;20237;-90
2022/09/22 09:39:47;;;;;;;1.67;1.37;;;;;;;-144.22;100.00;60274.75;6183120;28;20233;-89
2022/09/22 09:43:03;;;;;;;1.53;1.43;;;;;;;-144.22;100.00;60274.75;6172731;28;20787;-90
2022/09/22 09:46:42;;;;;;;1.17;1.07;;;;;;;-144.22;100.00;60274.75;6166439;28;20323;-88
2022/09/22 09:49:46;;;;;;;1.53;1.23;;;;;;;-144.22;100.00;60274.75;6187319;28;20727;-89
2022/09/22 09:52:54;;;;;;;2.33;1.00;;;;;;;17.32;100.00;60274.75;6197951;28;20228;-91
2022/09/22 09:55:57;;;;;;;0.80;0.80;;;;;;;-144.22;100.00;60274.75;6180779;28;20329;-90
2022/09/22 10:02:36;;;;;;;1.00;0.90;;;;;;;-144.22;100.00;60274.75;6196732;28;20319;-91
2022/09/22 10:05:39;;;;;;;2.17;1.20;;;;;;;-144.22;100.00;60274.75;6196377;28;20647;-90
2022/09/22 10:08:49;;;;;;;2.33;1.10;;;;;;;-144.22;100.00;60274.75;6182073;28;20263;-90
2022/09/22 10:11:59;;;;;;;1.73;1.40;;;;;;;-144.22;100.00;60274.75;6212201;28;20236;-90
2022/09/22 10:15:02;;;;;;;1.80;1.10;;;;;;;-144.22;100.00;60274.75;6179982;28;20221;-91
2022/09/22 10:18:22;;;;;;;1.30;1.20;;;;;;;17.18;100.00;60274.75;6180604;28;20209;-91
2022/09/22 10:21:25;;;;;;;3.03;1.10;;;;;;;-144.22;100.00;60274.75;6204712;28;20212;-91
2022/09/22 10:24:33;;;;;;;1.60;1.20;;;;;;;17.60;100.00;60274.75;6220352;28;20227;-89
2022/09/22 10:27:35;;;;;;;2.07;1.10;;;;;;;-144.22;100.00;60274.75;6220346;28;20280;-90
2022/09/22 10:30:38;;;;;;;2.67;1.10;;;;;;;-144.22;100.00;60274.75;6219414;28;20239;-91
2022/09/22 10:33:55;;;;;;;2.00;1.13;;;;;;;-144.22;100.00;60274.75;6220428;28;20228;-91
2022/09/22 10:36:59;;;;;;;1.37;1.27;;;;;;;18.98;100.00;60274.75;6220096;28;20240;-92
2022/09/22 10:40:02;;;;;;;1.37;1.13;;;;;;;-144.22;100.00;60274.75;6204118;28;20236;-91
2022/09/22 10:43:34;;;;;;;1.53;1.27;;;;;;;19.15;100.00;60274.75;6203811;28;20509;-91
2022/09/22 10:46:51;;;;;;;1.10;1.00;;;;;;;-144.22;100.00;60274.75;6202206;28;20241;-90
2022/09/22 10:50:17;;;;;;;1.00;0.90;;;;;;;19.10;100.00;60274.75;6196284;28;20237;-91
2022/09/22 10:53:31;;;;;;;1.67;0.77;;;;;;;-144.22;100.00;60274.75;6211655;28;20228;-89
2022/09/22 10:56:45;;;;;;;0.87;0.80;;;;;;;-144.22;100.00;60274.75;6211699;28;20237;-90
2022/09/22 11:00:12;;;;;;;1.10;1.00;;;;;;;-144.22;100.00;60274.75;6212232;28;20228;-91
2022/09/22 11:03:38;;;;;;;1.20;0.70;;;;;;;19.46;100.00;60274.75;6213566;28;20277;-91
2022/09/22 11:14:04;;;;;;;0.90;0.90;;;;;;;-144.22;100.00;60274.75;6229273;28;20224;-90
2022/09/22 11:17:42;;;;;;;2.07;0.90;;;;;;;-144.22;100.00;60274.75;6224840;28;20224;-91
2022/09/22 11:20:57;;;;;;;0.70;0.70;;;;;;;-144.22;100.00;60274.75;6219051;28;20231;-92
2022/09/22 11:24:13;;;;;;;0.80;0.60;;;;;;;-144.22;100.00;60274.75;6224572;28;20234;-91
2022/09/22 11:27:47;;;;;;;1.20;1.10;;;;;;;-144.22;100.00;60274.75;6209106;28;20209;-91
2022/09/22 11:30:51;;;;;;;2.30;1.00;;;;;;;-144.22;100.00;60274.75;6222886;28;20224;-91
2022/09/22 11:34:17;;;;;;;1.87;1.07;;;;;;;-144.22;100.00;60274.75;6208320;28;20282;-92
2022/09/22 11:37:25;;;;;;;1.93;1.20;;;;;;;-144.22;100.00;60274.75;6207149;28;20216;-91
2022/09/22 11:40:32;;;;;;;1.00;1.00;;;;;;;-144.22;100.00;60274.75;6207969;28;20234;-92
2022/09/22 11:44:04;;;;;;;1.20;1.10;;;;;;;-144.22;100.00;60274.75;6198800;28;20241;-91
2022/09/22 11:47:25;;;;;;;1.40;1.10;;;;;;;-144.22;100.00;60274.75;6174904;28;20241;-91
2022/09/22 11:50:50;;;;;;;1.10;0.93;;;;;;;-144.22;100.00;60274.75;6226936;28;20304;-91
2022/09/22 11:54:25;;;;;;;1.90;1.13;;;;;;;-144.22;100.00;60274.75;6210936;28;20334;-91
2022/09/22 11:57:33;;;;;;;2.60;1.10;;;;;;;-144.22;100.00;60274.75;6192422;28;20630;-90
2022/09/22 12:00:44;;;;;;;1.20;1.10;;;;;;;-144.22;100.00;60274.75;6175061;28;20642;-92
2022/09/22 12:03:57;;;;;;;1.20;1.10;;;;;;;-144.22;100.00;60274.75;6184175;28;20248;-92
2022/09/22 12:07:02;;;;;;;1.63;1.30;;;;;;;-144.22;100.00;60274.75;6168312;28;20280;-92
2022/09/22 12:10:17;;;;;;;0.93;0.93;;;;;;;-144.22;100.00;60274.75;6186714;28;20243;-91
2022/09/22 12:13:26;;;;;;;1.10;1.00;;;;;;;-144.22;100.00;60274.75;6152557;28;20598;-92
2022/09/22 12:16:50;;;;;;;1.50;1.37;;;;;;;21.74;100.00;60274.75;6184488;28;20283;-91
2022/09/22 12:19:52;;;;;;;2.43;0.97;;;;;;;-144.22;100.00;60274.75;6175118;28;20750;-91
2022/09/22 12:23:06;;;;;;;1.57;0.93;;;;;;;-144.22;100.00;60274.75;6175094;28;20277;-91
2022/09/22 12:26:11;;;;;;;0.80;0.80;;;;;;;-144.22;100.00;60274.75;6176656;28;20643;-91
2022/09/22 12:29:13;;;;;;;1.60;1.10;;;;;;;-144.22;100.00;60274.75;6175780;28;20703;-92
2022/09/22 12:32:38;;;;;;;0.90;0.90;;;;;;;-144.22;100.00;60274.75;6207979;28;20608;-91
2022/09/22 12:35:42;;;;;;;1.00;1.00;;;;;;;-144.22;100.00;60274.75;6191635;28;20612;-91
2022/09/22 12:38:45;;;;;;;2.20;1.10;;;;;;;-144.22;100.00;60274.75;6192092;28;20225;-91
2022/09/22 12:41:57;;;;;;;0.80;0.70;;;;;;;-144.22;100.00;60274.75;6190743;28;20216;-91
2022/09/22 12:45:19;;;;;;;1.83;1.10;;;;;;;18.21;43.79;98213.75;6191234;28;20249;-92
2022/09/22 12:48:29;;;;;;;1.30;0.80;;;;;;;17.46;45.70;98220.50;6190745;28;20232;-90
2022/09/22 12:51:32;;;;;;;0.83;0.83;;;;;;;17.50;45.21;98215.69;6190778;28;20224;-91
2022/09/22 12:54:36;;;;;;;0.90;0.87;;;;;;;-144.22;100.00;60274.75;6191796;28;20247;-90
2022/09/22 12:57:46;;;;;;;0.77;0.60;;;;;;;18.40;100.00;60274.75;6190457;28;20220;-92
2022/09/22 13:00:54;;;;;;;0.67;0.53;;;;;;;-144.22;100.00;60274.75;6175108;28;20311;-91
2022/09/22 13:04:15;;;;;;;1.37;0.60;;;;;;;-144.22;100.00;60274.75;6192295;28;20254;-91
2022/09/22 13:07:52;;;;;;;2.87;0.80;;;;;;;-144.22;100.00;60274.75;6176008;28;20232;-91
2022/09/22 13:11:02;;;;;;;0.77;0.60;;;;;;;-144.22;100.00;60274.75;6201476;28;20236;-92
2022/09/22 13:14:43;;;;;;;0.53;0.53;;;;;;;-144.22;100.00;60274.75;6175655;28;20200;-91
2022/09/22 13:17:50;;;;;;;0.90;0.83;;;;;;;-144.22;100.00;60274.75;6191702;28;20243;-92
2022/09/22 13:20:52;;;;;;;0.80;0.70;;;;;;;-144.22;100.00;60274.75;6182721;28;20249;-93
2022/09/22 13:23:57;;;;;;;2.33;0.73;;;;;;;104.84;100.00;60274.75;6182698;28;20241;-91
2022/09/22 13:27:03;;;;;;;1.03;0.70;;;;;;;-144.22;100.00;60274.75;6182060;28;20264;-92
2022/09/22 13:30:12;;;;;;;0.77;0.77;;;;;;;32.13;100.00;60274.75;6182662;28;20245;-92
2022/09/22 13:33:20;;;;;;;1.10;0.90;;;;;;;-144.22;100.00;60274.75;6165716;28;20583;-92
2022/09/22 13:36:24;;;;;;;1.13;1.00;;;;;;;-144.22;100.00;60274.75;6182277;28;20237;-91
2022/09/22 13:39:31;;;;;;;1.43;0.90;;;;;;;-144.22;100.00;60274.75;6182358;28;20315;-91
2022/09/22 13:42:33;;;;;;;1.90;0.90;;;;;;;63.28;100.00;60274.75;6167906;28;20239;-91
2022/09/22 13:45:38;;;;;;;0.87;0.70;;;;;;;-144.22;100.00;60274.75;6166863;28;20236;-93
2022/09/22 13:48:40;;;;;;;0.40;0.40;;;;;;;-144.22;100.00;60274.75;6181302;28;20773;-91
2022/09/22 13:51:47;;;;;;;0.53;0.53;;;;;;;-144.22;100.00;60274.75;6186074;28;20240;-92
2022/09/22 13:54:55;;;;;;;1.23;0.53;;;;;;;-144.22;100.00;60274.75;6190826;28;20240;-92
2022/09/22 13:57:58;;;;;;;0.67;0.53;;;;;;;-144.22;100.00;60274.75;6173962;28;20316;-91
2022/09/22 14:01:01;;;;;;;0.73;0.60;;;;;;;-144.22;100.00;60274.75;6174477;28;20834;-91
2022/09/22 14:04:25;;;;;;;0.90;0.50;;;;;;;-144.22;100.00;60274.75;6188941;28;20233;-92
2022/09/22 14:07:29;;;;;;;1.00;0.80;;;;;;;-144.22;100.00;60274.75;6190388;28;20774;-91
2022/09/22 14:10:32;;;;;;;0.70;0.70;;;;;;;-144.22;100.00;60274.75;6173852;28;20240;-92
2022/09/22 14:13:35;;;;;;;1.23;0.60;;;;;;;-144.22;100.00;60274.75;6172636;28;20235;-91
2022/09/22 14:16:47;;;;;;;0.70;0.70;;;;;;;-144.22;100.00;60274.75;6169808;28;20235;-91
2022/09/22 14:20:07;;;;;;;1.90;0.73;;;;;;;-144.22;100.00;60274.75;6165369;28;20237;-91
2022/09/22 14:23:29;;;;;;;1.30;1.00;;;;;;;-144.22;100.00;60274.75;6181005;28;20296;-92
2022/09/22 14:26:37;;;;;;;3.33;0.80;;;;;;;-144.22;100.00;60274.75;6164865;28;20308;-90
2022/09/22 14:29:39;;;;;;;1.47;0.70;;;;;;;-144.22;100.00;60274.75;6165682;28;20229;-91
2022/09/22 14:32:50;;;;;;;0.60;0.50;;;;;;;-144.22;100.00;60274.75;6180859;28;20233;-90
2022/09/22 14:36:02;;;;;;;0.60;0.53;;;;;;;-144.22;100.00;60274.75;6165510;28;20324;-90
2022/09/22 14:39:04;;;;;;;1.70;0.60;;;;;;;-144.22;100.00;60274.75;6165671;28;20320;-89
2022/09/22 14:42:21;;;;;;;1.93;0.50;;;;;;;-144.22;100.00;60274.75;6188445;28;20201;-90
2022/09/22 14:45:25;;;;;;;0.50;0.50;;;;;;;-144.22;100.00;60274.75;6189004;28;20225;-90
2022/09/22 14:48:35;;;;;;;1.80;0.60;;;;;;;-144.22;100.00;60274.75;6187254;28;20601;-91
2022/09/22 14:51:37;;;;;;;0.47;0.40;;;;;;;-144.22;100.00;60274.75;6168511;28;20756;-91
2022/09/22 14:54:43;;;;;;;0.50;0.50;;;;;;;-144.22;100.00;60274.75;6164454;28;20225;-91
2022/09/22 14:57:48;;;;;;;0.40;0.40;;;;;;;-144.22;100.00;60274.75;6180983;28;20232;-92
2022/09/22 15:04:29;;;;;;;0.50;0.50;;;;;;;-144.22;100.00;60274.75;6164040;28;20701;-91